createdAt,value
2019-03-27T00:01:10.861Z,5.90
2019-03-27T00:04:16.830Z,5.87
2019-03-27T00:07:22.720Z,5.84
2019-03-27T00:10:28.730Z,5.95
2019-03-27T00:13:36.218Z,5.99
2019-03-27T00:16:44.176Z,6.00
2019-03-27T00:19:50.227Z,5.97
2019-03-27T00:22:56.184Z,5.90
2019-03-27T00:26:02.142Z,5.92
2019-03-27T00:29:08.467Z,5.98
2019-03-27T00:32:14.405Z,5.97
2019-03-27T00:35:20.362Z,5.98
2019-03-27T00:38:26.280Z,5.90
2019-03-27T00:41:32.220Z,5.94
2019-03-27T00:44:38.095Z,5.96
2019-03-27T00:47:44.065Z,5.87
2019-03-27T00:50:52.024Z,5.85
2019-03-27T00:53:58.994Z,5.85
2019-03-27T00:57:04.940Z,5.83
2019-03-27T01:00:22.966Z,5.79
2019-03-27T01:03:30.033Z,5.71
2019-03-27T01:06:37.989Z,5.65
2019-03-27T01:09:44.007Z,5.61
2019-03-27T01:12:52.002Z,5.46
2019-03-27T01:15:57.910Z,5.40
2019-03-27T01:19:03.826Z,5.31
2019-03-27T01:22:09.727Z,5.32
2019-03-27T01:25:15.621Z,5.25
2019-03-27T01:28:22.006Z,5.13
2019-03-27T01:31:28.042Z,5.11
2019-03-27T01:34:33.974Z,5.04
2019-03-27T01:37:39.901Z,5.07
2019-03-27T01:40:47.854Z,5.08
2019-03-27T01:43:53.716Z,5.05
2019-03-27T01:46:59.821Z,4.95
2019-03-27T01:50:06.282Z,4.94
2019-03-27T01:53:12.297Z,4.94
2019-03-27T01:56:18.201Z,4.92
2019-03-27T01:59:24.206Z,4.94
2019-03-27T02:02:30.350Z,4.96
2019-03-27T02:05:36.295Z,4.94
2019-03-27T02:08:42.270Z,4.97
2019-03-27T02:11:48.330Z,4.89
2019-03-27T02:14:54.341Z,4.97
2019-03-27T02:18:00.242Z,5.02
2019-03-27T02:21:06.224Z,4.76
2019-03-27T02:24:13.312Z,4.86
2019-03-27T02:27:19.286Z,4.92
2019-03-27T02:30:25.190Z,4.69
2019-03-27T02:33:33.712Z,4.71
2019-03-27T02:36:39.576Z,4.75
2019-03-27T02:39:46.418Z,4.63
2019-03-27T02:42:52.429Z,4.61
2019-03-27T02:45:58.445Z,4.64
2019-03-27T02:49:05.266Z,4.67
2019-03-27T02:52:11.253Z,4.80
2019-03-27T02:55:18.168Z,4.80
2019-03-27T02:58:24.442Z,4.81
2019-03-27T03:01:30.361Z,4.79
2019-03-27T03:04:36.276Z,4.79
2019-03-27T03:07:42.295Z,4.73
2019-03-27T03:10:48.193Z,4.67
2019-03-27T03:13:54.171Z,4.64
2019-03-27T03:17:00.165Z,4.62
2019-03-27T03:20:06.692Z,4.52
2019-03-27T03:23:13.517Z,4.45
2019-03-27T03:26:19.392Z,4.48
2019-03-27T03:29:27.859Z,4.45
2019-03-27T03:32:33.690Z,4.36
2019-03-27T03:35:39.746Z,4.34
2019-03-27T03:38:45.666Z,4.44
2019-03-27T03:41:52.861Z,4.49
2019-03-27T03:44:58.763Z,4.35
2019-03-27T03:48:05.791Z,4.22
2019-03-27T03:51:13.171Z,4.01
2019-03-27T03:54:19.232Z,3.88
2019-03-27T03:57:29.178Z,3.71
2019-03-27T04:00:35.183Z,3.54
2019-03-27T04:03:42.858Z,3.55
2019-03-27T04:06:48.807Z,3.64
2019-03-27T04:09:54.710Z,3.60
2019-03-27T04:13:00.637Z,3.62
2019-03-27T04:16:06.684Z,3.69
2019-03-27T04:19:12.641Z,3.79
2019-03-27T04:22:18.569Z,3.82
2019-03-27T04:25:26.745Z,3.90
2019-03-27T04:28:32.765Z,3.95
2019-03-27T04:31:38.700Z,4.03
2019-03-27T04:34:47.061Z,4.09
2019-03-27T04:37:52.271Z,4.12
2019-03-27T04:40:58.147Z,4.13
2019-03-27T04:44:04.117Z,4.23
2019-03-27T04:47:10.035Z,4.29
2019-03-27T04:50:16.008Z,4.31
2019-03-27T04:53:21.927Z,4.39
2019-03-27T04:56:27.835Z,4.35
2019-03-27T04:59:35.106Z,4.29
2019-03-27T05:02:41.099Z,4.33
2019-03-27T05:05:47.071Z,4.36
2019-03-27T05:08:52.954Z,4.43
2019-03-27T05:11:58.879Z,4.47
2019-03-27T05:15:04.989Z,4.43
2019-03-27T05:18:10.950Z,4.43
2019-03-27T05:21:17.872Z,4.50
2019-03-27T05:24:23.791Z,4.54
2019-03-27T05:27:29.704Z,4.64
2019-03-27T05:30:35.689Z,4.64
2019-03-27T05:33:43.132Z,4.74
2019-03-27T05:36:49.135Z,4.77
2019-03-27T05:39:57.531Z,4.87
2019-03-27T05:43:03.499Z,4.89
2019-03-27T05:46:09.365Z,4.87
2019-03-27T05:49:16.974Z,4.89
2019-03-27T05:52:24.541Z,4.91
2019-03-27T05:55:30.432Z,4.96
2019-03-27T05:58:36.458Z,5.02
2019-03-27T06:01:42.390Z,5.04
2019-03-27T06:04:48.364Z,5.07
2019-03-27T06:07:54.490Z,5.10
2019-03-27T06:11:00.684Z,5.23
2019-03-27T06:14:06.605Z,5.20
2019-03-27T06:17:12.491Z,5.35
2019-03-27T06:20:20.985Z,5.38
2019-03-27T06:23:26.989Z,5.34
2019-03-27T06:26:32.995Z,5.37
2019-03-27T06:29:38.990Z,5.28
2019-03-27T06:32:44.965Z,5.37
2019-03-27T06:35:50.850Z,5.50
2019-03-27T06:38:56.774Z,5.70
2019-03-27T06:42:02.690Z,6.20
2019-03-27T06:45:10.254Z,6.16
2019-03-27T06:48:25.753Z,5.91
2019-03-27T06:51:25.302Z,5.94
2019-03-27T06:54:31.423Z,5.92
2019-03-27T06:57:37.355Z,6.12
2019-03-27T07:00:43.390Z,6.09
2019-03-27T07:03:49.364Z,6.16
2019-03-27T07:06:55.278Z,6.40
2019-03-27T07:10:01.254Z,6.33
2019-03-27T07:13:07.093Z,6.53
2019-03-27T07:16:13.041Z,6.87
2019-03-27T07:19:19.018Z,7.19
2019-03-27T07:22:24.964Z,7.05
2019-03-27T07:25:30.863Z,6.86
2019-03-27T07:28:39.046Z,7.18
2019-03-27T07:31:45.034Z,7.07
2019-03-27T07:34:50.974Z,7.30
2019-03-27T07:37:56.960Z,7.49
2019-03-27T07:41:02.892Z,7.77
2019-03-27T07:44:08.863Z,8.08
2019-03-27T07:47:14.855Z,8.35
2019-03-27T07:50:20.947Z,8.78
2019-03-27T07:53:27.090Z,9.16
2019-03-27T07:56:33.052Z,9.06
2019-03-27T07:59:38.973Z,8.66
2019-03-27T08:02:45.145Z,9.02
2019-03-27T08:05:51.144Z,8.98
2019-03-27T08:08:57.126Z,8.97
2019-03-27T08:12:03.180Z,9.36
2019-03-27T08:15:09.613Z,8.76
2019-03-27T08:18:15.644Z,8.94
2019-03-27T08:21:21.531Z,8.95
2019-03-27T08:24:27.535Z,9.21
2019-03-27T08:27:33.362Z,9.48
2019-03-27T08:30:39.275Z,8.98
2019-03-27T08:33:45.190Z,9.01
2019-03-27T08:36:58.035Z,9.54
2019-03-27T08:40:00.913Z,9.82
2019-03-27T08:43:20.721Z,9.67
2019-03-27T08:46:15.723Z,10.09
2019-03-27T08:49:22.673Z,9.55
2019-03-27T08:52:38.873Z,9.69
2019-03-27T08:55:44.834Z,10.16
2019-03-27T08:58:50.713Z,10.06
2019-03-27T09:01:56.663Z,10.34
2019-03-27T09:05:02.758Z,10.15
2019-03-27T09:08:08.635Z,9.06
2019-03-27T09:11:14.684Z,9.64
2019-03-27T09:14:21.230Z,9.57
2019-03-27T09:17:27.168Z,9.81
2019-03-27T09:20:33.131Z,9.57
2019-03-27T09:23:39.150Z,9.42
2019-03-27T09:26:47.150Z,10.04
2019-03-27T09:29:53.130Z,9.68
2019-03-27T09:32:59.179Z,10.18
2019-03-27T09:36:05.448Z,10.23
2019-03-27T09:39:11.459Z,10.39
2019-03-27T09:42:17.400Z,10.31
2019-03-27T09:45:23.252Z,9.75
2019-03-27T09:48:29.212Z,10.62
2019-03-27T09:51:35.108Z,11.07
2019-03-27T09:54:41.100Z,11.38
2019-03-27T09:57:46.945Z,10.59
2019-03-27T10:01:03.999Z,10.53
2019-03-27T10:04:09.870Z,10.16
2019-03-27T10:07:15.761Z,10.82
2019-03-27T10:10:21.670Z,10.43
2019-03-27T10:13:27.591Z,11.03
2019-03-27T10:16:33.670Z,10.85
2019-03-27T10:19:39.635Z,11.54
2019-03-27T10:22:45.583Z,11.10
2019-03-27T10:25:52.481Z,11.10
2019-03-27T10:29:01.040Z,11.05
2019-03-27T10:32:07.248Z,11.31
2019-03-27T10:35:13.559Z,11.18
2019-03-27T10:38:20.009Z,11.58
2019-03-27T10:41:26.027Z,11.39
2019-03-27T10:44:32.098Z,11.84
2019-03-27T10:47:38.137Z,11.46
2019-03-27T10:50:44.082Z,11.44
2019-03-27T10:53:50.071Z,11.44
2019-03-27T10:56:56.058Z,11.29
2019-03-27T11:00:01.983Z,11.42
2019-03-27T11:03:10.888Z,11.59
2019-03-27T11:06:16.826Z,11.26
2019-03-27T11:09:22.783Z,11.66
2019-03-27T11:12:28.717Z,11.28
2019-03-27T11:15:34.612Z,11.01
2019-03-27T11:18:40.553Z,10.57
2019-03-27T11:21:46.671Z,11.05
2019-03-27T11:24:53.578Z,11.23
2019-03-27T11:27:59.498Z,11.77
2019-03-27T11:31:07.595Z,11.79
2019-03-27T11:34:13.315Z,11.78
2019-03-27T11:37:19.277Z,11.61
2019-03-27T11:40:25.297Z,11.79
2019-03-27T11:43:31.173Z,11.81
2019-03-27T11:46:37.215Z,11.40
2019-03-27T11:49:43.115Z,11.63
2019-03-27T11:52:49.138Z,12.12
2019-03-27T11:55:55.126Z,12.20
2019-03-27T11:59:01.031Z,11.82
2019-03-27T12:02:06.980Z,12.43
2019-03-27T12:05:17.119Z,12.60
2019-03-27T12:08:23.092Z,12.34
2019-03-27T12:11:29.162Z,12.92
2019-03-27T12:14:35.262Z,12.86
2019-03-27T12:17:43.528Z,12.75
2019-03-27T12:20:58.962Z,12.35
2019-03-27T12:23:57.209Z,11.89
2019-03-27T12:27:03.108Z,12.16
2019-03-27T12:30:09.394Z,12.27
2019-03-27T12:33:15.376Z,12.17
2019-03-27T12:36:21.323Z,11.98
2019-03-27T12:39:27.227Z,12.65
2019-03-27T12:42:33.138Z,12.46
2019-03-27T12:45:39.054Z,12.35
2019-03-27T12:48:44.942Z,12.03
2019-03-27T12:51:50.987Z,12.13
2019-03-27T12:54:57.020Z,12.46
2019-03-27T12:58:02.993Z,12.34
2019-03-27T13:01:09.038Z,12.57
2019-03-27T13:04:15.054Z,12.58
2019-03-27T13:07:20.950Z,12.71
2019-03-27T13:10:26.842Z,12.95
2019-03-27T13:13:32.799Z,13.11
2019-03-27T13:16:38.748Z,12.96
2019-03-27T13:19:45.015Z,13.15
2019-03-27T13:22:50.919Z,12.61
2019-03-27T13:25:56.848Z,12.74
2019-03-27T13:29:02.766Z,12.75
2019-03-27T13:32:08.964Z,12.71
2019-03-27T13:35:16.730Z,12.50
2019-03-27T13:38:22.711Z,12.02
2019-03-27T13:41:28.697Z,11.55
2019-03-27T13:44:37.263Z,11.82
2019-03-27T13:47:42.329Z,12.07
2019-03-27T13:50:48.360Z,11.88
2019-03-27T13:53:54.243Z,11.96
2019-03-27T13:57:00.159Z,11.81
2019-03-27T14:00:10.049Z,12.10
2019-03-27T14:03:16.098Z,12.03
2019-03-27T14:06:21.994Z,11.93
2019-03-27T14:09:27.890Z,11.90
2019-03-27T14:12:33.799Z,12.03
2019-03-27T14:15:39.671Z,11.46
2019-03-27T14:18:48.809Z,11.54
2019-03-27T14:21:55.352Z,11.78
2019-03-27T14:25:01.468Z,11.36
2019-03-27T14:28:08.624Z,11.37
2019-03-27T14:31:14.868Z,11.33
2019-03-27T14:34:20.748Z,11.17
2019-03-27T14:37:26.659Z,11.04
2019-03-27T14:40:32.607Z,11.34
2019-03-27T14:43:38.596Z,11.22
2019-03-27T14:46:44.553Z,11.13
2019-03-27T14:49:50.614Z,11.37
2019-03-27T14:52:56.514Z,11.39
2019-03-27T14:56:06.078Z,11.29
2019-03-27T14:59:12.125Z,11.18
2019-03-27T15:02:18.118Z,11.29
2019-03-27T15:05:24.012Z,11.20
2019-03-27T15:08:29.958Z,11.23
2019-03-27T15:11:35.883Z,11.15
2019-03-27T15:14:41.848Z,11.04
2019-03-27T15:17:47.734Z,11.29
2019-03-27T15:20:53.680Z,11.18
2019-03-27T15:23:59.693Z,11.12
2019-03-27T15:27:05.616Z,11.33
2019-03-27T15:30:13.079Z,11.24
2019-03-27T15:33:20.172Z,11.41
2019-03-27T15:36:28.598Z,11.56
2019-03-27T15:39:34.619Z,11.52
2019-03-27T15:42:40.599Z,11.39
2019-03-27T15:45:46.587Z,11.54
2019-03-27T15:48:52.607Z,11.39
2019-03-27T15:51:58.583Z,11.37
2019-03-27T15:55:04.764Z,11.28
2019-03-27T15:58:10.718Z,11.12
2019-03-27T16:01:16.741Z,11.19
2019-03-27T16:04:22.696Z,11.19
2019-03-27T16:07:31.308Z,10.92
2019-03-27T16:10:38.256Z,10.77
2019-03-27T16:13:44.243Z,10.66
2019-03-27T16:17:06.835Z,10.65
2019-03-27T16:19:58.902Z,10.51
2019-03-27T16:23:04.949Z,10.60
2019-03-27T16:26:10.904Z,10.53
2019-03-27T16:29:16.874Z,10.49
2019-03-27T16:32:22.784Z,10.54
2019-03-27T16:35:28.788Z,10.44
2019-03-27T16:38:34.724Z,10.21
2019-03-27T16:41:40.707Z,10.19
2019-03-27T16:44:48.000Z,10.06
2019-03-27T16:47:53.924Z,10.15
2019-03-27T16:50:59.922Z,10.12
2019-03-27T16:54:06.042Z,10.13
2019-03-27T16:57:12.082Z,10.03
2019-03-27T17:00:18.076Z,10.01
2019-03-27T17:03:24.018Z,10.10
2019-03-27T17:06:30.072Z,9.96
2019-03-27T17:09:36.003Z,9.88
2019-03-27T17:12:44.241Z,9.85
2019-03-27T17:15:51.767Z,9.81
2019-03-27T17:18:59.624Z,9.79
2019-03-27T17:22:18.583Z,9.68
2019-03-27T17:25:13.447Z,9.62
2019-03-27T17:28:19.464Z,9.59
2019-03-27T17:31:25.318Z,9.59
2019-03-27T17:34:31.249Z,9.63
2019-03-27T17:37:37.191Z,9.60
2019-03-27T17:40:43.060Z,9.68
2019-03-27T17:43:52.049Z,9.53
2019-03-27T17:46:58.082Z,9.55
2019-03-27T17:50:05.024Z,9.50
2019-03-27T17:53:11.049Z,9.51
2019-03-27T17:56:17.208Z,9.45
2019-03-27T17:59:23.091Z,9.50
2019-03-27T18:02:29.241Z,9.45
2019-03-27T18:05:38.514Z,9.54
2019-03-27T18:08:43.095Z,9.49
2019-03-27T18:11:50.116Z,9.56
2019-03-27T18:14:59.623Z,9.51
2019-03-27T18:18:21.192Z,9.47
2019-03-27T18:21:27.224Z,9.41
2019-03-27T18:24:33.281Z,9.40
2019-03-27T18:27:39.418Z,9.44
2019-03-27T18:30:49.083Z,9.45
2019-03-27T18:33:55.038Z,9.45
2019-03-27T18:37:01.074Z,9.51
2019-03-27T18:40:09.568Z,9.54
2019-03-27T18:43:17.070Z,9.40
2019-03-27T18:46:24.461Z,9.35
2019-03-27T18:49:30.525Z,9.42
2019-03-27T18:52:36.480Z,9.42
2019-03-27T18:55:43.083Z,9.49
2019-03-27T18:58:49.047Z,9.48
2019-03-27T19:01:55.022Z,9.44
2019-03-27T19:05:02.723Z,9.50
2019-03-27T19:08:10.052Z,9.45
2019-03-27T19:11:15.992Z,9.41
2019-03-27T19:14:24.063Z,9.46
2019-03-27T19:17:31.592Z,9.48
2019-03-27T19:20:37.574Z,9.56
2019-03-27T19:23:43.504Z,9.65
2019-03-27T19:26:49.420Z,9.63
2019-03-27T19:29:55.468Z,9.66
2019-03-27T19:33:01.584Z,9.63
2019-03-27T19:36:08.007Z,9.56
2019-03-27T19:39:14.086Z,9.56
2019-03-27T19:42:20.477Z,9.56
2019-03-27T19:45:26.521Z,9.55
2019-03-27T19:48:47.927Z,9.51
2019-03-27T19:51:56.557Z,9.49
2019-03-27T19:55:02.606Z,9.50
2019-03-27T19:58:08.545Z,9.46
2019-03-27T20:01:14.641Z,9.44
2019-03-27T20:04:20.550Z,9.44
2019-03-27T20:07:35.925Z,9.45
2019-03-27T20:10:34.808Z,9.41
2019-03-27T20:13:40.907Z,9.38
2019-03-27T20:16:46.872Z,9.40
2019-03-27T20:19:52.868Z,9.39
2019-03-27T20:22:58.771Z,9.44
2019-03-27T20:26:04.716Z,9.39
2019-03-27T20:29:10.665Z,9.31
2019-03-27T20:32:16.656Z,9.33
2019-03-27T20:35:23.001Z,9.30
2019-03-27T20:38:29.271Z,9.25
2019-03-27T20:41:36.398Z,9.24
2019-03-27T20:44:42.772Z,9.23
2019-03-27T20:47:48.799Z,9.17
2019-03-27T20:50:54.765Z,9.09
2019-03-27T20:54:01.544Z,9.02
2019-03-27T20:57:07.787Z,8.96
2019-03-27T21:00:15.391Z,8.89
2019-03-27T21:03:21.441Z,8.86
2019-03-27T21:06:27.409Z,8.88
2019-03-27T21:09:33.392Z,8.80
2019-03-27T21:12:40.929Z,8.82
2019-03-27T21:15:47.426Z,8.73
2019-03-27T21:18:53.777Z,8.67
2019-03-27T21:21:59.820Z,8.61
2019-03-27T21:25:09.207Z,8.60
2019-03-27T21:28:15.258Z,8.58
2019-03-27T21:31:21.282Z,8.51
2019-03-27T21:34:27.226Z,8.52
2019-03-27T21:37:33.176Z,8.53
2019-03-27T21:40:39.203Z,8.49
2019-03-27T21:43:45.138Z,8.46
2019-03-27T21:46:58.731Z,8.42
2019-03-27T21:50:05.048Z,8.42
2019-03-27T21:53:11.083Z,8.33
2019-03-27T21:56:17.047Z,8.30
2019-03-27T21:59:23.121Z,8.23
2019-03-27T22:02:30.228Z,8.26
2019-03-27T22:05:36.291Z,8.20
2019-03-27T22:08:43.757Z,8.24
2019-03-27T22:11:49.790Z,8.27
2019-03-27T22:14:55.727Z,8.26
2019-03-27T22:18:01.664Z,8.23
2019-03-27T22:21:07.618Z,8.27
2019-03-27T22:24:13.600Z,8.24
2019-03-27T22:27:19.715Z,8.26
2019-03-27T22:30:25.920Z,8.32
2019-03-27T22:33:33.380Z,8.36
2019-03-27T22:36:39.405Z,8.35
2019-03-27T22:39:45.367Z,8.35
2019-03-27T22:42:52.302Z,8.34
2019-03-27T22:45:58.271Z,8.37
2019-03-27T22:49:05.886Z,8.35
2019-03-27T22:52:11.863Z,8.37
2019-03-27T22:55:17.765Z,8.33
2019-03-27T22:58:23.663Z,8.28
2019-03-27T23:01:50.418Z,8.17
2019-03-27T23:04:56.501Z,8.15
2019-03-27T23:08:02.416Z,8.15
2019-03-27T23:11:08.392Z,8.07
2019-03-27T23:14:14.325Z,8.11
2019-03-27T23:17:20.227Z,8.09
2019-03-27T23:20:26.190Z,8.12
2019-03-27T23:23:34.622Z,8.04
2019-03-27T23:26:40.605Z,8.03
2019-03-27T23:29:46.550Z,8.05
2019-03-27T23:32:52.829Z,8.01
2019-03-27T23:35:58.741Z,8.05
2019-03-27T23:39:05.145Z,8.05
2019-03-27T23:42:11.406Z,7.97
2019-03-27T23:45:17.342Z,7.98
2019-03-27T23:48:23.625Z,7.94
2019-03-27T23:51:29.603Z,8.01
2019-03-27T23:54:35.635Z,7.97
2019-03-27T23:57:41.597Z,7.92
